sensor_id;sensor_type;location;lat;lon;timestamp;P1;durP1;ratioP1;P2;durP2;ratioP2
11685;SDS011;5899;51.282;6.094;2023-06-22T00:00:47;3.08;;;2.75;;
11685;SDS011;5899;51.282;6.094;2023-06-22T00:03:17;3.57;;;3.07;;
11685;SDS011;5899;51.282;6.094;2023-06-22T00:05:43;3.50;;;2.78;;
11685;SDS011;5899;51.282;6.094;2023-06-22T00:08:11;7.57;;;3.08;;
11685;SDS011;5899;51.282;6.094;2023-06-22T00:10:37;5.10;;;3.03;;
11685;SDS011;5899;51.282;6.094;2023-06-22T00:13:05;5.72;;;3.30;;
11685;SDS011;5899;51.282;6.094;2023-06-22T00:15:32;3.92;;;2.78;;
11685;SDS011;5899;51.282;6.094;2023-06-22T00:17:59;3.90;;;3.50;;
11685;SDS011;5899;51.282;6.094;2023-06-22T00:20:27;3.33;;;3.03;;
11685;SDS011;5899;51.282;6.094;2023-06-22T00:22:55;4.30;;;3.35;;
11685;SDS011;5899;51.282;6.094;2023-06-22T00:25:25;6.55;;;4.07;;
11685;SDS011;5899;51.282;6.094;2023-06-22T00:27:57;4.63;;;4.18;;
11685;SDS011;5899;51.282;6.094;2023-06-22T00:30:25;4.65;;;4.10;;
11685;SDS011;5899;51.282;6.094;2023-06-22T00:32:52;4.90;;;4.20;;
11685;SDS011;5899;51.282;6.094;2023-06-22T00:35:20;4.88;;;4.43;;
11685;SDS011;5899;51.282;6.094;2023-06-22T00:37:51;7.82;;;5.00;;
11685;SDS011;5899;51.282;6.094;2023-06-22T00:40:25;6.38;;;5.38;;
11685;SDS011;5899;51.282;6.094;2023-06-22T00:42:55;5.43;;;4.93;;
11685;SDS011;5899;51.282;6.094;2023-06-22T00:45:21;6.20;;;4.75;;
11685;SDS011;5899;51.282;6.094;2023-06-22T00:47:51;7.15;;;4.65;;
11685;SDS011;5899;51.282;6.094;2023-06-22T00:50:20;5.57;;;4.85;;
11685;SDS011;5899;51.282;6.094;2023-06-22T00:52:53;5.60;;;4.80;;
11685;SDS011;5899;51.282;6.094;2023-06-22T00:55:19;6.97;;;5.07;;
11685;SDS011;5899;51.282;6.094;2023-06-22T00:57:46;5.65;;;5.07;;
11685;SDS011;5899;51.282;6.094;2023-06-22T01:00:14;5.85;;;4.78;;
11685;SDS011;5899;51.282;6.094;2023-06-22T01:02:42;6.30;;;5.15;;
11685;SDS011;5899;51.282;6.094;2023-06-22T01:05:17;7.88;;;5.53;;
11685;SDS011;5899;51.282;6.094;2023-06-22T01:07:47;6.97;;;6.18;;
11685;SDS011;5899;51.282;6.094;2023-06-22T01:10:21;5.95;;;5.35;;
11685;SDS011;5899;51.282;6.094;2023-06-22T01:12:58;7.75;;;5.88;;
11685;SDS011;5899;51.282;6.094;2023-06-22T01:15:44;6.72;;;5.72;;
11685;SDS011;5899;51.282;6.094;2023-06-22T01:18:16;8.67;;;6.00;;
11685;SDS011;5899;51.282;6.094;2023-06-22T01:20:47;7.10;;;6.05;;
11685;SDS011;5899;51.282;6.094;2023-06-22T01:23:21;8.30;;;6.32;;
11685;SDS011;5899;51.282;6.094;2023-06-22T01:26:06;6.97;;;6.03;;
11685;SDS011;5899;51.282;6.094;2023-06-22T01:28:49;8.23;;;6.55;;
11685;SDS011;5899;51.282;6.094;2023-06-22T01:31:17;7.85;;;6.93;;
11685;SDS011;5899;51.282;6.094;2023-06-22T01:33:52;8.48;;;6.50;;
11685;SDS011;5899;51.282;6.094;2023-06-22T01:36:20;7.95;;;6.63;;
11685;SDS011;5899;51.282;6.094;2023-06-22T01:38:48;10.20;;;7.20;;
11685;SDS011;5899;51.282;6.094;2023-06-22T01:41:15;10.10;;;6.70;;
11685;SDS011;5899;51.282;6.094;2023-06-22T01:43:50;9.32;;;7.05;;
11685;SDS011;5899;51.282;6.094;2023-06-22T01:46:25;9.48;;;7.15;;
11685;SDS011;5899;51.282;6.094;2023-06-22T01:48:51;10.23;;;7.00;;
11685;SDS011;5899;51.282;6.094;2023-06-22T01:51:20;8.55;;;6.88;;
11685;SDS011;5899;51.282;6.094;2023-06-22T01:53:48;8.10;;;6.50;;
11685;SDS011;5899;51.282;6.094;2023-06-22T01:56:15;7.57;;;6.57;;
11685;SDS011;5899;51.282;6.094;2023-06-22T01:58:44;6.97;;;6.17;;
11685;SDS011;5899;51.282;6.094;2023-06-22T02:01:14;8.65;;;7.15;;
11685;SDS011;5899;51.282;6.094;2023-06-22T02:03:46;8.07;;;6.90;;
11685;SDS011;5899;51.282;6.094;2023-06-22T02:06:20;8.93;;;7.28;;
11685;SDS011;5899;51.282;6.094;2023-06-22T02:08:56;9.98;;;7.03;;
11685;SDS011;5899;51.282;6.094;2023-06-22T02:11:25;8.20;;;7.30;;
11685;SDS011;5899;51.282;6.094;2023-06-22T02:13:54;8.60;;;7.40;;
11685;SDS011;5899;51.282;6.094;2023-06-22T02:16:24;12.48;;;8.20;;
11685;SDS011;5899;51.282;6.094;2023-06-22T02:18:56;9.20;;;7.63;;
11685;SDS011;5899;51.282;6.094;2023-06-22T02:21:33;9.80;;;7.27;;
11685;SDS011;5899;51.282;6.094;2023-06-22T02:24:02;11.30;;;7.57;;
11685;SDS011;5899;51.282;6.094;2023-06-22T02:26:28;9.82;;;7.80;;
11685;SDS011;5899;51.282;6.094;2023-06-22T02:28:55;8.80;;;7.90;;
11685;SDS011;5899;51.282;6.094;2023-06-22T02:31:24;10.20;;;8.02;;
11685;SDS011;5899;51.282;6.094;2023-06-22T02:33:55;9.02;;;7.65;;
11685;SDS011;5899;51.282;6.094;2023-06-22T02:36:22;9.30;;;7.70;;
11685;SDS011;5899;51.282;6.094;2023-06-22T02:38:52;10.18;;;8.13;;
11685;SDS011;5899;51.282;6.094;2023-06-22T02:41:31;8.90;;;7.00;;
11685;SDS011;5899;51.282;6.094;2023-06-22T02:43:58;9.07;;;7.90;;
11685;SDS011;5899;51.282;6.094;2023-06-22T02:46:27;9.63;;;7.63;;
11685;SDS011;5899;51.282;6.094;2023-06-22T02:48:58;9.55;;;7.85;;
11685;SDS011;5899;51.282;6.094;2023-06-22T02:51:24;10.40;;;7.95;;
11685;SDS011;5899;51.282;6.094;2023-06-22T02:53:54;10.02;;;8.27;;
11685;SDS011;5899;51.282;6.094;2023-06-22T02:56:25;9.32;;;7.95;;
11685;SDS011;5899;51.282;6.094;2023-06-22T02:58:51;10.50;;;7.90;;
11685;SDS011;5899;51.282;6.094;2023-06-22T03:01:27;9.02;;;7.70;;
11685;SDS011;5899;51.282;6.094;2023-06-22T03:03:58;13.50;;;8.20;;
11685;SDS011;5899;51.282;6.094;2023-06-22T03:06:25;10.52;;;8.60;;
11685;SDS011;5899;51.282;6.094;2023-06-22T03:08:59;10.32;;;9.13;;
11685;SDS011;5899;51.282;6.094;2023-06-22T03:11:26;9.77;;;8.17;;
11685;SDS011;5899;51.282;6.094;2023-06-22T03:13:53;10.02;;;8.50;;
11685;SDS011;5899;51.282;6.094;2023-06-22T03:16:23;12.45;;;8.73;;
11685;SDS011;5899;51.282;6.094;2023-06-22T03:18:52;10.00;;;8.57;;
11685;SDS011;5899;51.282;6.094;2023-06-22T03:21:23;10.23;;;8.20;;
11685;SDS011;5899;51.282;6.094;2023-06-22T03:23:49;9.68;;;7.97;;
11685;SDS011;5899;51.282;6.094;2023-06-22T03:26:17;9.33;;;8.17;;
11685;SDS011;5899;51.282;6.094;2023-06-22T03:28:44;12.70;;;8.93;;
11685;SDS011;5899;51.282;6.094;2023-06-22T03:31:12;10.05;;;8.05;;
11685;SDS011;5899;51.282;6.094;2023-06-22T03:33:40;9.93;;;8.07;;
11685;SDS011;5899;51.282;6.094;2023-06-22T03:36:09;9.87;;;8.17;;
11685;SDS011;5899;51.282;6.094;2023-06-22T03:38:40;8.77;;;7.88;;
11685;SDS011;5899;51.282;6.094;2023-06-22T03:41:10;12.82;;;9.00;;
11685;SDS011;5899;51.282;6.094;2023-06-22T03:43:37;11.60;;;9.32;;
11685;SDS011;5899;51.282;6.094;2023-06-22T03:46:09;10.90;;;8.05;;
11685;SDS011;5899;51.282;6.094;2023-06-22T03:48:36;10.23;;;8.32;;
11685;SDS011;5899;51.282;6.094;2023-06-22T03:51:05;10.25;;;8.60;;
11685;SDS011;5899;51.282;6.094;2023-06-22T03:53:32;10.90;;;8.88;;
11685;SDS011;5899;51.282;6.094;2023-06-22T03:56:07;11.00;;;8.75;;
11685;SDS011;5899;51.282;6.094;2023-06-22T03:58:36;10.55;;;8.45;;
11685;SDS011;5899;51.282;6.094;2023-06-22T04:01:08;9.90;;;8.30;;
11685;SDS011;5899;51.282;6.094;2023-06-22T04:03:36;9.38;;;8.07;;
11685;SDS011;5899;51.282;6.094;2023-06-22T04:06:04;10.88;;;8.73;;
11685;SDS011;5899;51.282;6.094;2023-06-22T04:08:35;11.57;;;8.98;;
11685;SDS011;5899;51.282;6.094;2023-06-22T04:11:07;11.27;;;8.70;;
11685;SDS011;5899;51.282;6.094;2023-06-22T04:13:35;9.55;;;8.27;;
11685;SDS011;5899;51.282;6.094;2023-06-22T04:16:01;9.93;;;8.60;;
11685;SDS011;5899;51.282;6.094;2023-06-22T04:18:29;10.30;;;8.32;;
11685;SDS011;5899;51.282;6.094;2023-06-22T04:20:57;12.07;;;9.02;;
11685;SDS011;5899;51.282;6.094;2023-06-22T04:23:24;10.40;;;8.57;;
11685;SDS011;5899;51.282;6.094;2023-06-22T04:25:52;9.60;;;8.60;;
11685;SDS011;5899;51.282;6.094;2023-06-22T04:28:33;10.35;;;8.27;;
11685;SDS011;5899;51.282;6.094;2023-06-22T04:31:01;10.07;;;9.02;;
11685;SDS011;5899;51.282;6.094;2023-06-22T04:33:30;13.50;;;9.07;;
11685;SDS011;5899;51.282;6.094;2023-06-22T04:35:57;10.05;;;8.77;;
11685;SDS011;5899;51.282;6.094;2023-06-22T04:38:32;11.07;;;8.93;;
11685;SDS011;5899;51.282;6.094;2023-06-22T04:40:59;9.25;;;8.27;;
11685;SDS011;5899;51.282;6.094;2023-06-22T04:43:27;11.93;;;9.27;;
11685;SDS011;5899;51.282;6.094;2023-06-22T04:45:56;11.20;;;9.07;;
11685;SDS011;5899;51.282;6.094;2023-06-22T04:49:36;13.55;;;8.90;;
11685;SDS011;5899;51.282;6.094;2023-06-22T04:51:36;9.55;;;8.55;;
11685;SDS011;5899;51.282;6.094;2023-06-22T04:54:09;10.87;;;8.80;;
11685;SDS011;5899;51.282;6.094;2023-06-22T04:56:36;9.20;;;8.20;;
11685;SDS011;5899;51.282;6.094;2023-06-22T04:59:06;10.60;;;9.00;;
11685;SDS011;5899;51.282;6.094;2023-06-22T05:01:42;10.20;;;8.43;;
11685;SDS011;5899;51.282;6.094;2023-06-22T05:04:09;11.40;;;9.80;;
11685;SDS011;5899;51.282;6.094;2023-06-22T05:06:35;10.30;;;9.10;;
11685;SDS011;5899;51.282;6.094;2023-06-22T05:09:02;12.23;;;10.00;;
11685;SDS011;5899;51.282;6.094;2023-06-22T05:11:30;10.45;;;9.05;;
11685;SDS011;5899;51.282;6.094;2023-06-22T05:14:16;11.65;;;9.00;;
11685;SDS011;5899;51.282;6.094;2023-06-22T05:16:46;10.65;;;9.13;;
11685;SDS011;5899;51.282;6.094;2023-06-22T05:19:15;11.55;;;9.55;;
11685;SDS011;5899;51.282;6.094;2023-06-22T05:21:43;9.77;;;8.45;;
11685;SDS011;5899;51.282;6.094;2023-06-22T05:24:10;11.30;;;9.43;;
11685;SDS011;5899;51.282;6.094;2023-06-22T05:26:39;11.95;;;9.43;;
11685;SDS011;5899;51.282;6.094;2023-06-22T05:29:05;11.43;;;8.77;;
11685;SDS011;5899;51.282;6.094;2023-06-22T05:31:33;11.00;;;8.80;;
11685;SDS011;5899;51.282;6.094;2023-06-22T05:34:07;10.05;;;8.90;;
11685;SDS011;5899;51.282;6.094;2023-06-22T05:36:34;12.75;;;8.75;;
11685;SDS011;5899;51.282;6.094;2023-06-22T05:39:00;11.45;;;9.07;;
11685;SDS011;5899;51.282;6.094;2023-06-22T05:41:37;12.17;;;9.60;;
11685;SDS011;5899;51.282;6.094;2023-06-22T05:44:03;10.93;;;8.55;;
11685;SDS011;5899;51.282;6.094;2023-06-22T05:46:30;11.40;;;9.07;;
11685;SDS011;5899;51.282;6.094;2023-06-22T05:48:58;9.55;;;8.48;;
11685;SDS011;5899;51.282;6.094;2023-06-22T05:51:27;10.52;;;9.07;;
11685;SDS011;5899;51.282;6.094;2023-06-22T05:53:54;12.07;;;9.75;;
11685;SDS011;5899;51.282;6.094;2023-06-22T05:56:22;11.73;;;8.90;;
11685;SDS011;5899;51.282;6.094;2023-06-22T05:58:50;14.40;;;9.20;;
11685;SDS011;5899;51.282;6.094;2023-06-22T06:01:17;13.97;;;9.37;;
11685;SDS011;5899;51.282;6.094;2023-06-22T06:03:47;13.30;;;10.23;;
11685;SDS011;5899;51.282;6.094;2023-06-22T06:06:18;11.30;;;9.35;;
11685;SDS011;5899;51.282;6.094;2023-06-22T06:08:47;11.30;;;9.93;;
11685;SDS011;5899;51.282;6.094;2023-06-22T06:11:16;12.13;;;9.82;;
11685;SDS011;5899;51.282;6.094;2023-06-22T06:13:44;12.85;;;10.27;;
11685;SDS011;5899;51.282;6.094;2023-06-22T06:16:10;10.35;;;9.25;;
11685;SDS011;5899;51.282;6.094;2023-06-22T06:18:45;12.90;;;9.80;;
11685;SDS011;5899;51.282;6.094;2023-06-22T06:21:13;13.57;;;9.95;;
11685;SDS011;5899;51.282;6.094;2023-06-22T06:23:40;11.47;;;9.70;;
11685;SDS011;5899;51.282;6.094;2023-06-22T06:26:13;11.63;;;9.73;;
11685;SDS011;5899;51.282;6.094;2023-06-22T06:28:41;14.98;;;10.80;;
11685;SDS011;5899;51.282;6.094;2023-06-22T06:31:10;13.30;;;10.85;;
11685;SDS011;5899;51.282;6.094;2023-06-22T06:33:38;11.70;;;9.85;;
11685;SDS011;5899;51.282;6.094;2023-06-22T06:36:05;11.85;;;9.88;;
11685;SDS011;5899;51.282;6.094;2023-06-22T06:38:33;11.97;;;10.07;;
11685;SDS011;5899;51.282;6.094;2023-06-22T06:41:00;12.18;;;10.50;;
11685;SDS011;5899;51.282;6.094;2023-06-22T06:46:10;13.27;;;10.30;;
11685;SDS011;5899;51.282;6.094;2023-06-22T06:48:37;12.30;;;10.73;;
11685;SDS011;5899;51.282;6.094;2023-06-22T06:51:04;13.43;;;10.75;;
11685;SDS011;5899;51.282;6.094;2023-06-22T06:53:34;13.52;;;10.50;;
11685;SDS011;5899;51.282;6.094;2023-06-22T06:56:02;11.63;;;10.10;;
11685;SDS011;5899;51.282;6.094;2023-06-22T06:58:31;15.93;;;11.05;;
11685;SDS011;5899;51.282;6.094;2023-06-22T07:00:59;13.25;;;10.43;;
11685;SDS011;5899;51.282;6.094;2023-06-22T07:03:32;13.57;;;11.05;;
11685;SDS011;5899;51.282;6.094;2023-06-22T07:06:01;12.88;;;10.63;;
11685;SDS011;5899;51.282;6.094;2023-06-22T07:08:29;13.70;;;11.25;;
11685;SDS011;5899;51.282;6.094;2023-06-22T07:11:03;12.90;;;10.20;;
11685;SDS011;5899;51.282;6.094;2023-06-22T07:13:31;13.90;;;10.98;;
11685;SDS011;5899;51.282;6.094;2023-06-22T07:15:58;13.90;;;11.18;;
11685;SDS011;5899;51.282;6.094;2023-06-22T07:18:25;16.50;;;10.95;;
11685;SDS011;5899;51.282;6.094;2023-06-22T07:21:05;13.07;;;11.35;;
11685;SDS011;5899;51.282;6.094;2023-06-22T07:23:34;14.07;;;10.68;;
11685;SDS011;5899;51.282;6.094;2023-06-22T07:26:05;14.07;;;11.27;;
11685;SDS011;5899;51.282;6.094;2023-06-22T07:28:33;11.52;;;10.30;;
11685;SDS011;5899;51.282;6.094;2023-06-22T07:31:02;12.63;;;10.40;;
11685;SDS011;5899;51.282;6.094;2023-06-22T07:33:29;14.75;;;11.02;;
11685;SDS011;5899;51.282;6.094;2023-06-22T07:35:59;14.25;;;11.27;;
11685;SDS011;5899;51.282;6.094;2023-06-22T07:38:26;14.60;;;10.55;;
11685;SDS011;5899;51.282;6.094;2023-06-22T07:40:53;13.77;;;10.68;;
11685;SDS011;5899;51.282;6.094;2023-06-22T07:43:20;12.45;;;11.00;;
11685;SDS011;5899;51.282;6.094;2023-06-22T07:45:50;13.23;;;10.32;;
11685;SDS011;5899;51.282;6.094;2023-06-22T07:48:25;13.55;;;11.13;;
11685;SDS011;5899;51.282;6.094;2023-06-22T07:50:55;12.43;;;10.93;;
11685;SDS011;5899;51.282;6.094;2023-06-22T07:53:24;13.10;;;10.23;;
11685;SDS011;5899;51.282;6.094;2023-06-22T07:55:51;12.70;;;10.73;;
11685;SDS011;5899;51.282;6.094;2023-06-22T08:01:21;13.93;;;10.65;;
11685;SDS011;5899;51.282;6.094;2023-06-22T08:04:33;12.20;;;10.03;;
11685;SDS011;5899;51.282;6.094;2023-06-22T08:06:52;13.13;;;10.90;;
11685;SDS011;5899;51.282;6.094;2023-06-22T08:09:42;11.10;;;9.93;;
11685;SDS011;5899;51.282;6.094;2023-06-22T08:12:18;13.07;;;10.50;;
11685;SDS011;5899;51.282;6.094;2023-06-22T08:14:57;13.80;;;10.13;;
11685;SDS011;5899;51.282;6.094;2023-06-22T08:17:26;12.55;;;10.32;;
11685;SDS011;5899;51.282;6.094;2023-06-22T08:20:06;11.60;;;10.13;;
11685;SDS011;5899;51.282;6.094;2023-06-22T08:22:36;12.40;;;9.77;;
11685;SDS011;5899;51.282;6.094;2023-06-22T08:25:14;12.65;;;10.02;;
11685;SDS011;5899;51.282;6.094;2023-06-22T08:27:49;13.40;;;10.93;;
11685;SDS011;5899;51.282;6.094;2023-06-22T08:30:37;13.52;;;9.95;;
11685;SDS011;5899;51.282;6.094;2023-06-22T08:33:12;12.20;;;8.97;;
11685;SDS011;5899;51.282;6.094;2023-06-22T08:35:46;11.63;;;9.60;;
11685;SDS011;5899;51.282;6.094;2023-06-22T08:38:18;11.02;;;9.13;;
11685;SDS011;5899;51.282;6.094;2023-06-22T08:40:49;12.05;;;9.32;;
11685;SDS011;5899;51.282;6.094;2023-06-22T08:43:39;10.30;;;9.23;;
11685;SDS011;5899;51.282;6.094;2023-06-22T08:46:20;13.70;;;9.48;;
11685;SDS011;5899;51.282;6.094;2023-06-22T08:48:58;12.85;;;9.85;;
11685;SDS011;5899;51.282;6.094;2023-06-22T08:51:34;10.93;;;9.63;;
11685;SDS011;5899;51.282;6.094;2023-06-22T08:54:26;11.10;;;8.82;;
11685;SDS011;5899;51.282;6.094;2023-06-22T09:02:49;11.70;;;9.37;;
11685;SDS011;5899;51.282;6.094;2023-06-22T09:05:25;11.00;;;9.23;;
11685;SDS011;5899;51.282;6.094;2023-06-22T09:07:56;9.88;;;8.80;;
11685;SDS011;5899;51.282;6.094;2023-06-22T09:10:33;11.40;;;8.43;;
11685;SDS011;5899;51.282;6.094;2023-06-22T09:13:16;9.55;;;8.25;;
11685;SDS011;5899;51.282;6.094;2023-06-22T09:15:43;12.40;;;8.70;;
11685;SDS011;5899;51.282;6.094;2023-06-22T09:18:16;12.27;;;9.00;;
11685;SDS011;5899;51.282;6.094;2023-06-22T09:20:47;12.35;;;9.48;;
11685;SDS011;5899;51.282;6.094;2023-06-22T09:23:41;10.25;;;8.73;;
11685;SDS011;5899;51.282;6.094;2023-06-22T09:26:16;10.15;;;9.10;;
11685;SDS011;5899;51.282;6.094;2023-06-22T09:28:48;12.73;;;9.17;;
11685;SDS011;5899;51.282;6.094;2023-06-22T09:31:30;11.75;;;9.23;;
11685;SDS011;5899;51.282;6.094;2023-06-22T09:36:57;13.00;;;10.38;;
11685;SDS011;5899;51.282;6.094;2023-06-22T09:39:39;14.68;;;10.07;;
11685;SDS011;5899;51.282;6.094;2023-06-22T09:42:22;12.13;;;9.63;;
11685;SDS011;5899;51.282;6.094;2023-06-22T09:45:10;12.20;;;10.23;;
11685;SDS011;5899;51.282;6.094;2023-06-22T09:47:51;14.07;;;10.35;;
11685;SDS011;5899;51.282;6.094;2023-06-22T09:50:39;12.13;;;10.00;;
11685;SDS011;5899;51.282;6.094;2023-06-22T10:01:55;13.45;;;10.13;;
11685;SDS011;5899;51.282;6.094;2023-06-22T10:04:24;11.32;;;9.57;;
11685;SDS011;5899;51.282;6.094;2023-06-22T10:06:50;11.95;;;10.00;;
11685;SDS011;5899;51.282;6.094;2023-06-22T10:09:43;12.88;;;10.10;;
11685;SDS011;5899;51.282;6.094;2023-06-22T10:12:15;11.00;;;9.73;;
11685;SDS011;5899;51.282;6.094;2023-06-22T10:14:42;13.07;;;10.35;;
11685;SDS011;5899;51.282;6.094;2023-06-22T10:17:10;12.93;;;10.57;;
11685;SDS011;5899;51.282;6.094;2023-06-22T10:19:47;11.85;;;10.25;;
11685;SDS011;5899;51.282;6.094;2023-06-22T10:22:31;14.63;;;10.63;;
11685;SDS011;5899;51.282;6.094;2023-06-22T10:25:03;12.20;;;9.80;;
11685;SDS011;5899;51.282;6.094;2023-06-22T10:27:37;10.40;;;9.23;;
11685;SDS011;5899;51.282;6.094;2023-06-22T10:30:10;11.45;;;9.05;;
11685;SDS011;5899;51.282;6.094;2023-06-22T10:32:50;10.50;;;9.40;;
11685;SDS011;5899;51.282;6.094;2023-06-22T10:35:48;12.02;;;9.38;;
11685;SDS011;5899;51.282;6.094;2023-06-22T10:38:20;12.93;;;9.70;;
11685;SDS011;5899;51.282;6.094;2023-06-22T10:40:54;12.07;;;9.80;;
11685;SDS011;5899;51.282;6.094;2023-06-22T10:43:29;10.03;;;9.03;;
11685;SDS011;5899;51.282;6.094;2023-06-22T10:46:09;10.35;;;9.18;;
11685;SDS011;5899;51.282;6.094;2023-06-22T10:57:42;10.50;;;8.80;;
11685;SDS011;5899;51.282;6.094;2023-06-22T11:00:28;10.70;;;8.75;;
11685;SDS011;5899;51.282;6.094;2023-06-22T11:03:23;11.50;;;10.02;;
11685;SDS011;5899;51.282;6.094;2023-06-22T11:08:42;14.13;;;11.48;;
11685;SDS011;5899;51.282;6.094;2023-06-22T11:15:30;13.20;;;10.68;;
11685;SDS011;5899;51.282;6.094;2023-06-22T11:18:03;13.55;;;10.90;;
11685;SDS011;5899;51.282;6.094;2023-06-22T11:20:33;14.30;;;11.80;;
11685;SDS011;5899;51.282;6.094;2023-06-22T11:23:09;14.57;;;12.52;;
11685;SDS011;5899;51.282;6.094;2023-06-22T11:25:42;16.17;;;13.03;;
11685;SDS011;5899;51.282;6.094;2023-06-22T11:28:24;18.23;;;12.40;;
11685;SDS011;5899;51.282;6.094;2023-06-22T11:30:52;16.98;;;12.77;;
11685;SDS011;5899;51.282;6.094;2023-06-22T11:33:22;14.88;;;12.40;;
11685;SDS011;5899;51.282;6.094;2023-06-22T11:38:54;16.95;;;14.13;;
11685;SDS011;5899;51.282;6.094;2023-06-22T11:41:52;15.40;;;13.07;;
11685;SDS011;5899;51.282;6.094;2023-06-22T11:44:30;18.87;;;14.20;;
11685;SDS011;5899;51.282;6.094;2023-06-22T11:53:17;17.63;;;14.90;;
11685;SDS011;5899;51.282;6.094;2023-06-22T12:02:05;18.70;;;15.88;;
11685;SDS011;5899;51.282;6.094;2023-06-22T12:04:35;17.08;;;14.73;;
11685;SDS011;5899;51.282;6.094;2023-06-22T12:07:53;17.02;;;14.60;;
11685;SDS011;5899;51.282;6.094;2023-06-22T12:13:23;16.17;;;14.48;;
11685;SDS011;5899;51.282;6.094;2023-06-22T12:16:37;19.02;;;14.55;;
11685;SDS011;5899;51.282;6.094;2023-06-22T12:22:25;18.98;;;15.32;;
11685;SDS011;5899;51.282;6.094;2023-06-22T12:29:02;17.48;;;15.57;;
11685;SDS011;5899;51.282;6.094;2023-06-22T12:37:03;20.60;;;16.27;;
11685;SDS011;5899;51.282;6.094;2023-06-22T12:42:47;18.73;;;16.20;;
11685;SDS011;5899;51.282;6.094;2023-06-22T12:45:27;19.13;;;17.05;;
11685;SDS011;5899;51.282;6.094;2023-06-22T12:48:19;19.58;;;17.15;;
11685;SDS011;5899;51.282;6.094;2023-06-22T12:54:07;19.40;;;17.23;;
11685;SDS011;5899;51.282;6.094;2023-06-22T12:56:59;21.20;;;17.07;;
11685;SDS011;5899;51.282;6.094;2023-06-22T12:59:38;18.25;;;16.23;;
11685;SDS011;5899;51.282;6.094;2023-06-22T13:05:20;19.33;;;15.70;;
11685;SDS011;5899;51.282;6.094;2023-06-22T13:08:11;18.42;;;15.52;;
11685;SDS011;5899;51.282;6.094;2023-06-22T13:16:55;17.75;;;15.68;;
11685;SDS011;5899;51.282;6.094;2023-06-22T13:19:40;18.73;;;15.73;;
11685;SDS011;5899;51.282;6.094;2023-06-22T13:22:33;22.52;;;15.40;;
11685;SDS011;5899;51.282;6.094;2023-06-22T13:26:26;17.75;;;15.50;;
11685;SDS011;5899;51.282;6.094;2023-06-22T13:28:32;17.80;;;15.10;;
11685;SDS011;5899;51.282;6.094;2023-06-22T13:31:22;19.35;;;14.98;;
11685;SDS011;5899;51.282;6.094;2023-06-22T13:37:00;19.48;;;16.05;;
11685;SDS011;5899;51.282;6.094;2023-06-22T13:39:41;18.63;;;14.77;;
11685;SDS011;5899;51.282;6.094;2023-06-22T13:43:32;19.27;;;15.25;;
11685;SDS011;5899;51.282;6.094;2023-06-22T13:45:31;17.42;;;15.00;;
11685;SDS011;5899;51.282;6.094;2023-06-22T13:48:17;17.75;;;15.15;;
11685;SDS011;5899;51.282;6.094;2023-06-22T13:57:04;16.92;;;14.18;;
11685;SDS011;5899;51.282;6.094;2023-06-22T14:02:56;16.48;;;14.35;;
11685;SDS011;5899;51.282;6.094;2023-06-22T14:05:44;15.98;;;13.23;;
11685;SDS011;5899;51.282;6.094;2023-06-22T14:08:30;15.32;;;13.18;;
11685;SDS011;5899;51.282;6.094;2023-06-22T14:11:09;15.55;;;13.32;;
11685;SDS011;5899;51.282;6.094;2023-06-22T14:14:04;17.50;;;13.88;;
11685;SDS011;5899;51.282;6.094;2023-06-22T14:19:39;15.15;;;11.95;;
11685;SDS011;5899;51.282;6.094;2023-06-22T14:22:26;16.65;;;12.88;;
11685;SDS011;5899;51.282;6.094;2023-06-22T14:26:19;16.50;;;12.70;;
11685;SDS011;5899;51.282;6.094;2023-06-22T14:28:36;17.50;;;12.82;;
11685;SDS011;5899;51.282;6.094;2023-06-22T14:34:32;15.43;;;12.00;;
11685;SDS011;5899;51.282;6.094;2023-06-22T14:37:37;14.00;;;12.30;;
11685;SDS011;5899;51.282;6.094;2023-06-22T14:40:26;14.75;;;11.90;;
11685;SDS011;5899;51.282;6.094;2023-06-22T14:43:06;12.40;;;11.05;;
11685;SDS011;5899;51.282;6.094;2023-06-22T14:48:51;15.45;;;12.43;;
11685;SDS011;5899;51.282;6.094;2023-06-22T15:00:35;18.93;;;13.87;;
11685;SDS011;5899;51.282;6.094;2023-06-22T15:10:41;17.27;;;14.20;;
11685;SDS011;5899;51.282;6.094;2023-06-22T15:24:33;20.48;;;16.45;;
11685;SDS011;5899;51.282;6.094;2023-06-22T15:27:19;21.27;;;16.08;;
11685;SDS011;5899;51.282;6.094;2023-06-22T15:29:58;22.42;;;16.55;;
11685;SDS011;5899;51.282;6.094;2023-06-22T15:32:30;20.98;;;17.52;;
11685;SDS011;5899;51.282;6.094;2023-06-22T15:35:10;21.47;;;17.03;;
11685;SDS011;5899;51.282;6.094;2023-06-22T15:37:39;20.15;;;17.45;;
11685;SDS011;5899;51.282;6.094;2023-06-22T15:43:17;22.02;;;19.73;;
11685;SDS011;5899;51.282;6.094;2023-06-22T15:45:55;24.88;;;20.45;;
11685;SDS011;5899;51.282;6.094;2023-06-22T15:48:27;24.40;;;21.63;;
11685;SDS011;5899;51.282;6.094;2023-06-22T15:50:59;23.37;;;20.83;;
11685;SDS011;5899;51.282;6.094;2023-06-22T15:53:32;26.75;;;21.23;;
11685;SDS011;5899;51.282;6.094;2023-06-22T15:56:23;25.40;;;20.53;;
11685;SDS011;5899;51.282;6.094;2023-06-22T15:59:02;24.70;;;20.00;;
11685;SDS011;5899;51.282;6.094;2023-06-22T16:01:49;25.17;;;20.88;;
11685;SDS011;5899;51.282;6.094;2023-06-22T16:04:37;24.30;;;21.40;;
11685;SDS011;5899;51.282;6.094;2023-06-22T16:07:13;24.15;;;20.33;;
11685;SDS011;5899;51.282;6.094;2023-06-22T16:09:55;25.90;;;21.50;;
11685;SDS011;5899;51.282;6.094;2023-06-22T16:12:41;26.00;;;20.42;;
11685;SDS011;5899;51.282;6.094;2023-06-22T16:15:10;24.25;;;21.65;;
11685;SDS011;5899;51.282;6.094;2023-06-22T16:17:36;27.38;;;21.77;;
11685;SDS011;5899;51.282;6.094;2023-06-22T16:20:06;25.90;;;21.02;;
11685;SDS011;5899;51.282;6.094;2023-06-22T16:22:42;25.65;;;20.75;;
11685;SDS011;5899;51.282;6.094;2023-06-22T16:25:19;25.25;;;21.27;;
11685;SDS011;5899;51.282;6.094;2023-06-22T16:27:46;24.33;;;20.45;;
11685;SDS011;5899;51.282;6.094;2023-06-22T16:33:05;23.48;;;20.70;;
11685;SDS011;5899;51.282;6.094;2023-06-22T16:35:33;22.60;;;20.08;;
11685;SDS011;5899;51.282;6.094;2023-06-22T16:38:10;26.20;;;21.13;;
11685;SDS011;5899;51.282;6.094;2023-06-22T16:40:36;23.52;;;19.85;;
11685;SDS011;5899;51.282;6.094;2023-06-22T16:43:03;23.85;;;20.05;;
11685;SDS011;5899;51.282;6.094;2023-06-22T16:45:29;21.92;;;19.42;;
11685;SDS011;5899;51.282;6.094;2023-06-22T16:47:57;21.40;;;18.27;;
11685;SDS011;5899;51.282;6.094;2023-06-22T16:50:25;20.80;;;16.00;;
11685;SDS011;5899;51.282;6.094;2023-06-22T16:52:52;17.50;;;14.98;;
11685;SDS011;5899;51.282;6.094;2023-06-22T16:55:19;14.93;;;13.30;;
11685;SDS011;5899;51.282;6.094;2023-06-22T16:57:55;15.23;;;12.70;;
11685;SDS011;5899;51.282;6.094;2023-06-22T17:00:24;17.80;;;14.07;;
11685;SDS011;5899;51.282;6.094;2023-06-22T17:02:50;18.67;;;13.35;;
11685;SDS011;5899;51.282;6.094;2023-06-22T17:05:17;16.10;;;12.50;;
11685;SDS011;5899;51.282;6.094;2023-06-22T17:07:47;15.13;;;12.52;;
11685;SDS011;5899;51.282;6.094;2023-06-22T17:10:14;15.68;;;12.07;;
11685;SDS011;5899;51.282;6.094;2023-06-22T17:12:41;15.40;;;11.75;;
11685;SDS011;5899;51.282;6.094;2023-06-22T17:15:09;12.63;;;11.13;;
11685;SDS011;5899;51.282;6.094;2023-06-22T17:17:42;16.08;;;12.23;;
11685;SDS011;5899;51.282;6.094;2023-06-22T17:20:11;17.20;;;13.15;;
11685;SDS011;5899;51.282;6.094;2023-06-22T17:22:42;17.80;;;14.18;;
11685;SDS011;5899;51.282;6.094;2023-06-22T17:25:12;17.98;;;14.13;;
11685;SDS011;5899;51.282;6.094;2023-06-22T17:27:41;18.00;;;14.90;;
11685;SDS011;5899;51.282;6.094;2023-06-22T17:30:09;18.20;;;14.20;;
11685;SDS011;5899;51.282;6.094;2023-06-22T17:32:40;17.40;;;13.82;;
11685;SDS011;5899;51.282;6.094;2023-06-22T17:35:30;17.60;;;13.98;;
11685;SDS011;5899;51.282;6.094;2023-06-22T17:37:57;15.90;;;14.20;;
11685;SDS011;5899;51.282;6.094;2023-06-22T17:40:26;16.60;;;13.05;;
11685;SDS011;5899;51.282;6.094;2023-06-22T17:43:01;16.88;;;14.10;;
11685;SDS011;5899;51.282;6.094;2023-06-22T17:45:28;15.90;;;13.18;;